Terminal Aerodrome Forecast
Issued by NWS Grand Forks, ND

Home | Current Version | Previous Version | Graphics & Text | Print | Product List | Glossary On
Versions: 1 2 3 4 5 6 7 8 9 10 11 12 13 14
729
FTUS43 KFGF 161724
TAFFAR
TAF
KFAR 161724Z 1618/1718 VRB05KT P6SM SCT250
     FM170900 28005KT 5SM BR FEW120
     FM171700 20008KT P6SM FEW110=

USA.gov is the U.S. government's official web portal to all federal, state and local government web resources and services.